Back to Top

Language: 

My Weather Underground Personal Weather Station Historical Data with Graphs...

Delerius Weather Station Historical Data
Daily Summary for April 24, 2017 Units:  Both    English   Metric
« Previous Day
Next Day »
Daily Weekly Monthly Yearly Custom
  High: Low: Average:
Temperature: 57.4 °F /  14.1 °C 35.8 °F /  2.1 °C 48.9 °F /  9.4 °C
Dew Point: 45.5 °F /  7.5 °C 23.9 °F /  -4.5 °C 38.2 °F /  3.4 °C
Humidity: 86 % 39 % 68 %
Wind Speed: 20.0 mph /  32.2 km/h - 10 mph /  16.1 km/h
Wind Gust: 34.0 mph /  54.7 km/h - -
Wind:- - WNW
Pressure: 30.10 in /  1019.2 hPa 29.86 in /  1011.1 hPa -
Precipitation: 0.00 in /  0 mm    
Historical Graphs
 
 
Tabular Data for April 24, 2017
Time Temperature Dew Point Pressure Wind Wind Speed Wind Gust Humidity Rainfall Rate (Hourly) solar Conditions
00:04 47.3 °F /  8.5 °C 43.0 °F /  6.1 °C 30.09 in /  1018.8 hPa West 6.0 mph /  9.7 km/h 13.0 mph /  20.9 km/h 85 % 0.00 in /  0 mm 0 W/m2
00:09 47.7 °F /  8.7 °C 43.4 °F /  6.3 °C 30.10 in /  1019.2 hPa West 7.0 mph /  11.3 km/h 13.0 mph /  20.9 km/h 85 % 0.00 in /  0 mm 0 W/m2
00:15 48.0 °F /  8.9 °C 43.4 °F /  6.3 °C 30.09 in /  1018.8 hPa West 8.0 mph /  12.9 km/h 13.0 mph /  20.9 km/h 84 % 0.00 in /  0 mm 0 W/m2
00:20 48.4 °F /  9.1 °C 43.8 °F /  6.6 °C 30.09 in /  1018.8 hPa West 8.0 mph /  12.9 km/h 15.0 mph /  24.1 km/h 84 % 0.00 in /  0 mm 0 W/m2
00:25 48.4 °F /  9.1 °C 43.8 °F /  6.6 °C 30.09 in /  1018.8 hPa West 8.0 mph /  12.9 km/h 15.0 mph /  24.1 km/h 84 % 0.00 in /  0 mm 0 W/m2
00:30 48.6 °F /  9.2 °C 43.9 °F /  6.6 °C 30.09 in /  1018.8 hPa West 8.0 mph /  12.9 km/h 13.0 mph /  20.9 km/h 84 % 0.00 in /  0 mm 0 W/m2
00:35 48.7 °F /  9.3 °C 44.1 °F /  6.7 °C 30.09 in /  1018.8 hPa West 7.0 mph /  11.3 km/h 12.0 mph /  19.3 km/h 84 % 0.00 in /  0 mm 0 W/m2
00:40 48.7 °F /  9.3 °C 44.1 °F /  6.7 °C 30.09 in /  1018.8 hPa West 7.0 mph /  11.3 km/h 11.0 mph /  17.7 km/h 84 % 0.00 in /  0 mm 0 W/m2
00:45 48.7 °F /  9.3 °C 44.4 °F /  6.9 °C 30.08 in /  1018.5 hPa West 8.0 mph /  12.9 km/h 14.0 mph /  22.5 km/h 85 % 0.00 in /  0 mm 0 W/m2
00:50 48.7 °F /  9.3 °C 44.4 °F /  6.9 °C 30.08 in /  1018.5 hPa WSW 8.0 mph /  12.9 km/h 14.0 mph /  22.5 km/h 85 % 0.00 in /  0 mm 0 W/m2
00:55 48.7 °F /  9.3 °C 44.4 °F /  6.9 °C 30.08 in /  1018.5 hPa WSW 9.0 mph /  14.5 km/h 18.0 mph /  29 km/h 85 % 0.00 in /  0 mm 0 W/m2
01:01 48.7 °F /  9.3 °C 44.4 °F /  6.9 °C 30.08 in /  1018.5 hPa WSW 10.0 mph /  16.1 km/h 18.0 mph /  29 km/h 85 % 0.00 in /  0 mm 0 W/m2
01:06 48.7 °F /  9.3 °C 44.4 °F /  6.9 °C 30.08 in /  1018.5 hPa WSW 9.0 mph /  14.5 km/h 16.0 mph /  25.7 km/h 85 % 0.00 in /  0 mm 0 W/m2
01:11 48.7 °F /  9.3 °C 44.7 °F /  7.1 °C 30.07 in /  1018.2 hPa West 9.0 mph /  14.5 km/h 15.0 mph /  24.1 km/h 86 % 0.00 in /  0 mm 0 W/m2
01:16 48.7 °F /  9.3 °C 44.7 °F /  7.1 °C 30.07 in /  1018.2 hPa WSW 10.0 mph /  16.1 km/h 15.0 mph /  24.1 km/h 86 % 0.00 in /  0 mm 0 W/m2
01:21 48.7 °F /  9.3 °C 44.7 °F /  7.1 °C 30.07 in /  1018.2 hPa WSW 10.0 mph /  16.1 km/h 15.0 mph /  24.1 km/h 86 % 0.00 in /  0 mm 0 W/m2
01:26 48.7 °F /  9.3 °C 44.7 °F /  7.1 °C 30.07 in /  1018.2 hPa WSW 8.0 mph /  12.9 km/h 14.0 mph /  22.5 km/h 86 % 0.00 in /  0 mm 0 W/m2
01:31 48.9 °F /  9.4 °C 44.9 °F /  7.2 °C 30.07 in /  1018.2 hPa WSW 6.0 mph /  9.7 km/h 11.0 mph /  17.7 km/h 86 % 0.00 in /  0 mm 0 W/m2
01:36 48.9 °F /  9.4 °C 44.9 °F /  7.2 °C 30.07 in /  1018.2 hPa WSW 6.0 mph /  9.7 km/h 11.0 mph /  17.7 km/h 86 % 0.00 in /  0 mm 0 W/m2
01:41 48.9 °F /  9.4 °C 44.9 °F /  7.2 °C 30.06 in /  1017.8 hPa WSW 6.0 mph /  9.7 km/h 10.0 mph /  16.1 km/h 86 % 0.00 in /  0 mm 0 W/m2
01:46 48.9 °F /  9.4 °C 44.9 °F /  7.2 °C 30.06 in /  1017.8 hPa WSW 5.0 mph /  8 km/h 9.0 mph /  14.5 km/h 86 % 0.00 in /  0 mm 0 W/m2
01:51 48.9 °F /  9.4 °C 44.9 °F /  7.2 °C 30.06 in /  1017.8 hPa WSW 4.0 mph /  6.4 km/h 8.0 mph /  12.9 km/h 86 % 0.00 in /  0 mm 0 W/m2
01:56 49.1 °F /  9.5 °C 45.1 °F /  7.3 °C 30.06 in /  1017.8 hPa WSW 4.0 mph /  6.4 km/h 9.0 mph /  14.5 km/h 86 % 0.00 in /  0 mm 0 W/m2
02:01 49.1 °F /  9.5 °C 45.1 °F /  7.3 °C 30.06 in /  1017.8 hPa WSW 4.0 mph /  6.4 km/h 10.0 mph /  16.1 km/h 86 % 0.00 in /  0 mm 0 W/m2
02:06 49.3 °F /  9.6 °C 45.3 °F /  7.4 °C 30.05 in /  1017.5 hPa WSW 6.0 mph /  9.7 km/h 11.0 mph /  17.7 km/h 86 % 0.00 in /  0 mm 0 W/m2
02:11 49.5 °F /  9.7 °C 45.4 °F /  7.4 °C 30.05 in /  1017.5 hPa WSW 6.0 mph /  9.7 km/h 11.0 mph /  17.7 km/h 86 % 0.00 in /  0 mm 0 W/m2
02:16 49.5 °F /  9.7 °C 45.4 °F /  7.4 °C 30.05 in /  1017.5 hPa West 5.0 mph /  8 km/h 9.0 mph /  14.5 km/h 86 % 0.00 in /  0 mm 0 W/m2
02:21 49.6 °F /  9.8 °C 45.3 °F /  7.4 °C 30.05 in /  1017.5 hPa West 6.0 mph /  9.7 km/h 12.0 mph /  19.3 km/h 85 % 0.00 in /  0 mm 0 W/m2
02:26 49.8 °F /  9.9 °C 45.5 °F /  7.5 °C 30.04 in /  1017.2 hPa West 7.0 mph /  11.3 km/h 12.0 mph /  19.3 km/h 85 % 0.00 in /  0 mm 0 W/m2
02:31 49.8 °F /  9.9 °C 45.5 °F /  7.5 °C 30.04 in /  1017.2 hPa West 7.0 mph /  11.3 km/h 14.0 mph /  22.5 km/h 85 % 0.00 in /  0 mm 0 W/m2
02:36 50.0 °F /  10 °C 45.4 °F /  7.4 °C 30.04 in /  1017.2 hPa West 8.0 mph /  12.9 km/h 14.0 mph /  22.5 km/h 84 % 0.00 in /  0 mm 0 W/m2
02:41 50.0 °F /  10 °C 45.4 °F /  7.4 °C 30.04 in /  1017.2 hPa West 7.0 mph /  11.3 km/h 12.0 mph /  19.3 km/h 84 % 0.00 in /  0 mm 0 W/m2
02:46 50.0 °F /  10 °C 45.0 °F /  7.2 °C 30.03 in /  1016.8 hPa West 7.0 mph /  11.3 km/h 11.0 mph /  17.7 km/h 83 % 0.00 in /  0 mm 0 W/m2
02:51 49.8 °F /  9.9 °C 44.9 °F /  7.2 °C 30.03 in /  1016.8 hPa West 7.0 mph /  11.3 km/h 11.0 mph /  17.7 km/h 83 % 0.00 in /  0 mm 0 W/m2
02:56 49.8 °F /  9.9 °C 44.9 °F /  7.2 °C 30.03 in /  1016.8 hPa West 8.0 mph /  12.9 km/h 14.0 mph /  22.5 km/h 83 % 0.00 in /  0 mm 0 W/m2
03:01 49.8 °F /  9.9 °C 44.9 °F /  7.2 °C 30.03 in /  1016.8 hPa West 7.0 mph /  11.3 km/h 14.0 mph /  22.5 km/h 83 % 0.00 in /  0 mm 0 W/m2
03:06 49.8 °F /  9.9 °C 44.9 °F /  7.2 °C 30.03 in /  1016.8 hPa West 6.0 mph /  9.7 km/h 11.0 mph /  17.7 km/h 83 % 0.00 in /  0 mm 0 W/m2
03:11 49.8 °F /  9.9 °C 44.9 °F /  7.2 °C 30.03 in /  1016.8 hPa WSW 4.0 mph /  6.4 km/h 11.0 mph /  17.7 km/h 83 % 0.00 in /  0 mm 0 W/m2
03:16 49.8 °F /  9.9 °C 44.5 °F /  6.9 °C 30.02 in /  1016.5 hPa WSW 4.0 mph /  6.4 km/h 11.0 mph /  17.7 km/h 82 % 0.00 in /  0 mm 0 W/m2
03:21 49.8 °F /  9.9 °C 44.5 °F /  6.9 °C 30.02 in /  1016.5 hPa West 3.0 mph /  4.8 km/h 8.0 mph /  12.9 km/h 82 % 0.00 in /  0 mm 0 W/m2
03:26 49.8 °F /  9.9 °C 44.5 °F /  6.9 °C 30.02 in /  1016.5 hPa West 3.0 mph /  4.8 km/h 8.0 mph /  12.9 km/h 82 % 0.00 in /  0 mm 0 W/m2
03:31 49.6 °F /  9.8 °C 44.0 °F /  6.7 °C 30.02 in /  1016.5 hPa West 4.0 mph /  6.4 km/h 10.0 mph /  16.1 km/h 81 % 0.00 in /  0 mm 0 W/m2
03:37 49.6 °F /  9.8 °C 44.0 °F /  6.7 °C 30.02 in /  1016.5 hPa West 5.0 mph /  8 km/h 11.0 mph /  17.7 km/h 81 % 0.00 in /  0 mm 0 W/m2
03:42 49.8 °F /  9.9 °C 44.2 °F /  6.8 °C 30.01 in /  1016.1 hPa WSW 6.0 mph /  9.7 km/h 12.0 mph /  19.3 km/h 81 % 0.00 in /  0 mm 0 W/m2
03:47 49.8 °F /  9.9 °C 44.2 °F /  6.8 °C 30.01 in /  1016.1 hPa WSW 6.0 mph /  9.7 km/h 12.0 mph /  19.3 km/h 81 % 0.00 in /  0 mm 0 W/m2
03:52 49.8 °F /  9.9 °C 44.2 °F /  6.8 °C 30.01 in /  1016.1 hPa West 5.0 mph /  8 km/h 8.0 mph /  12.9 km/h 81 % 0.00 in /  0 mm 0 W/m2
03:57 49.8 °F /  9.9 °C 44.2 °F /  6.8 °C 30.01 in /  1016.1 hPa West 4.0 mph /  6.4 km/h 8.0 mph /  12.9 km/h 81 % 0.00 in /  0 mm 0 W/m2
04:02 49.8 °F /  9.9 °C 44.2 °F /  6.8 °C 30.00 in /  1015.8 hPa West 4.0 mph /  6.4 km/h 9.0 mph /  14.5 km/h 81 % 0.00 in /  0 mm 0 W/m2
04:07 49.8 °F /  9.9 °C 44.2 °F /  6.8 °C 30.00 in /  1015.8 hPa West 5.0 mph /  8 km/h 16.0 mph /  25.7 km/h 81 % 0.00 in /  0 mm 0 W/m2
04:12 49.8 °F /  9.9 °C 44.2 °F /  6.8 °C 30.00 in /  1015.8 hPa West 6.0 mph /  9.7 km/h 16.0 mph /  25.7 km/h 81 % 0.00 in /  0 mm 0 W/m2
04:17 49.8 °F /  9.9 °C 44.2 °F /  6.8 °C 30.00 in /  1015.8 hPa West 5.0 mph /  8 km/h 12.0 mph /  19.3 km/h 81 % 0.00 in /  0 mm 0 W/m2
04:22 49.8 °F /  9.9 °C 44.2 °F /  6.8 °C 30.00 in /  1015.8 hPa West 4.0 mph /  6.4 km/h 11.0 mph /  17.7 km/h 81 % 0.00 in /  0 mm 0 W/m2
04:27 49.8 °F /  9.9 °C 44.2 °F /  6.8 °C 30.00 in /  1015.8 hPa West 5.0 mph /  8 km/h 10.0 mph /  16.1 km/h 81 % 0.00 in /  0 mm 0 W/m2
04:32 49.8 °F /  9.9 °C 44.5 °F /  6.9 °C 30.00 in /  1015.8 hPa West 6.0 mph /  9.7 km/h 14.0 mph /  22.5 km/h 82 % 0.00 in /  0 mm 0 W/m2
04:37 49.8 °F /  9.9 °C 44.5 °F /  6.9 °C 29.99 in /  1015.5 hPa West 7.0 mph /  11.3 km/h 14.0 mph /  22.5 km/h 82 % 0.00 in /  0 mm 0 W/m2
04:42 49.8 °F /  9.9 °C 44.5 °F /  6.9 °C 29.99 in /  1015.5 hPa West 7.0 mph /  11.3 km/h 20.0 mph /  32.2 km/h 82 % 0.00 in /  0 mm 0 W/m2
04:47 49.8 °F /  9.9 °C 44.5 °F /  6.9 °C 29.99 in /  1015.5 hPa West 8.0 mph /  12.9 km/h 20.0 mph /  32.2 km/h 82 % 0.00 in /  0 mm 0 W/m2
04:52 49.8 °F /  9.9 °C 44.5 °F /  6.9 °C 29.98 in /  1015.1 hPa West 7.0 mph /  11.3 km/h 16.0 mph /  25.7 km/h 82 % 0.00 in /  0 mm 0 W/m2
04:57 49.6 °F /  9.8 °C 44.4 °F /  6.9 °C 29.99 in /  1015.5 hPa West 6.0 mph /  9.7 km/h 14.0 mph /  22.5 km/h 82 % 0.00 in /  0 mm 0 W/m2
05:02 49.6 °F /  9.8 °C 44.4 °F /  6.9 °C 29.98 in /  1015.1 hPa West 5.0 mph /  8 km/h 14.0 mph /  22.5 km/h 82 % 0.00 in /  0 mm 0 W/m2
05:07 49.6 °F /  9.8 °C 44.4 °F /  6.9 °C 29.98 in /  1015.1 hPa West 5.0 mph /  8 km/h 15.0 mph /  24.1 km/h 82 % 0.00 in /  0 mm 0 W/m2
05:12 49.6 °F /  9.8 °C 44.4 °F /  6.9 °C 29.98 in /  1015.1 hPa WNW 6.0 mph /  9.7 km/h 18.0 mph /  29 km/h 82 % 0.00 in /  0 mm 0 W/m2
05:17 49.6 °F /  9.8 °C 44.4 °F /  6.9 °C 29.98 in /  1015.1 hPa WNW 7.0 mph /  11.3 km/h 18.0 mph /  29 km/h 82 % 0.00 in /  0 mm 0 W/m2
05:22 49.6 °F /  9.8 °C 44.4 °F /  6.9 °C 29.98 in /  1015.1 hPa WNW 9.0 mph /  14.5 km/h 18.0 mph /  29 km/h 82 % 0.00 in /  0 mm 0 W/m2
05:27 49.6 °F /  9.8 °C 44.0 °F /  6.7 °C 29.97 in /  1014.8 hPa WNW 9.0 mph /  14.5 km/h 18.0 mph /  29 km/h 81 % 0.00 in /  0 mm 0 W/m2
05:32 49.6 °F /  9.8 °C 44.0 °F /  6.7 °C 29.98 in /  1015.1 hPa WNW 10.0 mph /  16.1 km/h 23.0 mph /  37 km/h 81 % 0.00 in /  0 mm 0 W/m2
05:37 49.6 °F /  9.8 °C 44.0 °F /  6.7 °C 29.98 in /  1015.1 hPa WNW 11.0 mph /  17.7 km/h 23.0 mph /  37 km/h 81 % 0.00 in /  0 mm 0 W/m2
05:42 49.6 °F /  9.8 °C 44.0 °F /  6.7 °C 29.98 in /  1015.1 hPa WNW 11.0 mph /  17.7 km/h 23.0 mph /  37 km/h 81 % 0.00 in /  0 mm 0 W/m2
05:47 49.6 °F /  9.8 °C 44.4 °F /  6.9 °C 29.98 in /  1015.1 hPa WNW 8.0 mph /  12.9 km/h 21.0 mph /  33.8 km/h 82 % 0.00 in /  0 mm 0 W/m2
05:52 49.6 °F /  9.8 °C 44.4 °F /  6.9 °C 29.97 in /  1014.8 hPa WNW 8.0 mph /  12.9 km/h 16.0 mph /  25.7 km/h 82 % 0.00 in /  0 mm 0 W/m2
05:57 49.6 °F /  9.8 °C 44.4 °F /  6.9 °C 29.98 in /  1015.1 hPa WNW 9.0 mph /  14.5 km/h 16.0 mph /  25.7 km/h 82 % 0.00 in /  0 mm 5 W/m2
06:02 49.6 °F /  9.8 °C 44.4 °F /  6.9 °C 29.97 in /  1014.8 hPa WNW 9.0 mph /  14.5 km/h 16.0 mph /  25.7 km/h 82 % 0.00 in /  0 mm 7 W/m2
06:07 49.6 °F /  9.8 °C 44.4 °F /  6.9 °C 29.97 in /  1014.8 hPa WNW 9.0 mph /  14.5 km/h 18.0 mph /  29 km/h 82 % 0.00 in /  0 mm 9 W/m2
06:13 49.6 °F /  9.8 °C 44.0 °F /  6.7 °C 29.97 in /  1014.8 hPa WNW 10.0 mph /  16.1 km/h 20.0 mph /  32.2 km/h 81 % 0.00 in /  0 mm 12 W/m2
06:18 49.5 °F /  9.7 °C 43.9 °F /  6.6 °C 29.97 in /  1014.8 hPa WNW 12.0 mph /  19.3 km/h 20.0 mph /  32.2 km/h 81 % 0.00 in /  0 mm 14 W/m2
06:23 49.5 °F /  9.7 °C 43.9 °F /  6.6 °C 29.97 in /  1014.8 hPa WNW 12.0 mph /  19.3 km/h 21.0 mph /  33.8 km/h 81 % 0.00 in /  0 mm 19 W/m2
06:28 49.5 °F /  9.7 °C 44.2 °F /  6.8 °C 29.97 in /  1014.8 hPa WNW 10.0 mph /  16.1 km/h 21.0 mph /  33.8 km/h 82 % 0.00 in /  0 mm 23 W/m2
06:33 49.5 °F /  9.7 °C 44.2 °F /  6.8 °C 29.97 in /  1014.8 hPa WNW 8.0 mph /  12.9 km/h 14.0 mph /  22.5 km/h 82 % 0.00 in /  0 mm 23 W/m2
06:34 49.5 °F /  9.7 °C 44.2 °F /  6.8 °C 29.97 in /  1014.8 hPa WNW 8.0 mph /  12.9 km/h 14.0 mph /  22.5 km/h 82 % 0.00 in /  0 mm 21 W/m2
06:39 49.5 °F /  9.7 °C 44.2 °F /  6.8 °C 29.97 in /  1014.8 hPa WNW 10.0 mph /  16.1 km/h 19.0 mph /  30.6 km/h 82 % 0.00 in /  0 mm 21 W/m2
06:44 49.5 °F /  9.7 °C 44.2 °F /  6.8 °C 29.97 in /  1014.8 hPa WNW 12.0 mph /  19.3 km/h 23.0 mph /  37 km/h 82 % 0.00 in /  0 mm 23 W/m2
06:49 49.3 °F /  9.6 °C 44.0 °F /  6.7 °C 29.97 in /  1014.8 hPa WNW 13.0 mph /  20.9 km/h 23.0 mph /  37 km/h 82 % 0.00 in /  0 mm 35 W/m2
06:54 49.3 °F /  9.6 °C 44.3 °F /  6.8 °C 29.97 in /  1014.8 hPa WNW 11.0 mph /  17.7 km/h 21.0 mph /  33.8 km/h 83 % 0.00 in /  0 mm 39 W/m2
06:59 49.1 °F /  9.5 °C 44.2 °F /  6.8 °C 29.97 in /  1014.8 hPa WNW 10.0 mph /  16.1 km/h 20.0 mph /  32.2 km/h 83 % 0.00 in /  0 mm 39 W/m2
07:04 48.9 °F /  9.4 °C 44.0 °F /  6.7 °C 29.97 in /  1014.8 hPa WNW 10.0 mph /  16.1 km/h 20.0 mph /  32.2 km/h 83 % 0.00 in /  0 mm 44 W/m2
07:09 48.9 °F /  9.4 °C 44.0 °F /  6.7 °C 29.97 in /  1014.8 hPa WNW 9.0 mph /  14.5 km/h 19.0 mph /  30.6 km/h 83 % 0.00 in /  0 mm 37 W/m2
07:15 48.9 °F /  9.4 °C 44.0 °F /  6.7 °C 29.97 in /  1014.8 hPa WNW 10.0 mph /  16.1 km/h 16.0 mph /  25.7 km/h 83 % 0.00 in /  0 mm 42 W/m2
07:20 48.9 °F /  9.4 °C 44.0 °F /  6.7 °C 29.97 in /  1014.8 hPa WNW 10.0 mph /  16.1 km/h 16.0 mph /  25.7 km/h 83 % 0.00 in /  0 mm 46 W/m2
07:25 48.9 °F /  9.4 °C 44.0 °F /  6.7 °C 29.97 in /  1014.8 hPa WNW 10.0 mph /  16.1 km/h 18.0 mph /  29 km/h 83 % 0.00 in /  0 mm 46 W/m2
07:30 48.9 °F /  9.4 °C 43.7 °F /  6.5 °C 29.97 in /  1014.8 hPa WNW 10.0 mph /  16.1 km/h 18.0 mph /  29 km/h 82 % 0.00 in /  0 mm 49 W/m2
07:35 48.9 °F /  9.4 °C 43.7 °F /  6.5 °C 29.97 in /  1014.8 hPa WNW 9.0 mph /  14.5 km/h 16.0 mph /  25.7 km/h 82 % 0.00 in /  0 mm 56 W/m2
07:40 48.9 °F /  9.4 °C 43.7 °F /  6.5 °C 29.97 in /  1014.8 hPa WNW 9.0 mph /  14.5 km/h 16.0 mph /  25.7 km/h 82 % 0.00 in /  0 mm 65 W/m2
07:45 48.9 °F /  9.4 °C 43.7 °F /  6.5 °C 29.97 in /  1014.8 hPa WNW 9.0 mph /  14.5 km/h 16.0 mph /  25.7 km/h 82 % 0.00 in /  0 mm 62 W/m2
07:50 49.1 °F /  9.5 °C 43.8 °F /  6.6 °C 29.97 in /  1014.8 hPa WNW 9.0 mph /  14.5 km/h 14.0 mph /  22.5 km/h 82 % 0.00 in /  0 mm 88 W/m2
07:55 49.1 °F /  9.5 °C 43.8 °F /  6.6 °C 29.97 in /  1014.8 hPa WNW 9.0 mph /  14.5 km/h 20.0 mph /  32.2 km/h 82 % 0.00 in /  0 mm 114 W/m2
08:00 49.3 °F /  9.6 °C 44.0 °F /  6.7 °C 29.97 in /  1014.8 hPa WNW 10.0 mph /  16.1 km/h 20.0 mph /  32.2 km/h 82 % 0.00 in /  0 mm 132 W/m2
08:05 49.5 °F /  9.7 °C 43.9 °F /  6.6 °C 29.97 in /  1014.8 hPa WNW 10.0 mph /  16.1 km/h 18.0 mph /  29 km/h 81 % 0.00 in /  0 mm 113 W/m2
08:10 49.6 °F /  9.8 °C 44.0 °F /  6.7 °C 29.97 in /  1014.8 hPa WNW 11.0 mph /  17.7 km/h 20.0 mph /  32.2 km/h 81 % 0.00 in /  0 mm 114 W/m2
08:15 49.8 °F /  9.9 °C 43.9 °F /  6.6 °C 29.97 in /  1014.8 hPa WNW 12.0 mph /  19.3 km/h 20.0 mph /  32.2 km/h 80 % 0.00 in /  0 mm 102 W/m2
08:20 49.8 °F /  9.9 °C 43.9 °F /  6.6 °C 29.97 in /  1014.8 hPa WNW 12.0 mph /  19.3 km/h 20.0 mph /  32.2 km/h 80 % 0.00 in /  0 mm 91 W/m2
08:25 49.8 °F /  9.9 °C 43.9 °F /  6.6 °C 29.97 in /  1014.8 hPa WNW 11.0 mph /  17.7 km/h 20.0 mph /  32.2 km/h 80 % 0.00 in /  0 mm 67 W/m2
08:30 49.8 °F /  9.9 °C 44.5 °F /  6.9 °C 29.97 in /  1014.8 hPa WNW 10.0 mph /  16.1 km/h 16.0 mph /  25.7 km/h 82 % 0.00 in /  0 mm 72 W/m2
08:35 49.5 °F /  9.7 °C 44.5 °F /  6.9 °C 29.96 in /  1014.4 hPa WNW 9.0 mph /  14.5 km/h 16.0 mph /  25.7 km/h 83 % 0.00 in /  0 mm 156 W/m2
08:40 49.3 °F /  9.6 °C 44.6 °F /  7 °C 29.96 in /  1014.4 hPa WNW 10.0 mph /  16.1 km/h 16.0 mph /  25.7 km/h 84 % 0.00 in /  0 mm 264 W/m2
08:45 49.5 °F /  9.7 °C 45.1 °F /  7.3 °C 29.95 in /  1014.1 hPa WNW 11.0 mph /  17.7 km/h 16.0 mph /  25.7 km/h 85 % 0.00 in /  0 mm 265 W/m2
08:50 49.6 °F /  9.8 °C 45.3 °F /  7.4 °C 29.95 in /  1014.1 hPa WNW 10.0 mph /  16.1 km/h 16.0 mph /  25.7 km/h 85 % 0.00 in /  0 mm 250 W/m2
08:55 49.8 °F /  9.9 °C 45.5 °F /  7.5 °C 29.95 in /  1014.1 hPa WNW 10.0 mph /  16.1 km/h 16.0 mph /  25.7 km/h 85 % 0.00 in /  0 mm 197 W/m2
09:00 49.8 °F /  9.9 °C 45.2 °F /  7.3 °C 29.95 in /  1014.1 hPa WNW 9.0 mph /  14.5 km/h 16.0 mph /  25.7 km/h 84 % 0.00 in /  0 mm 193 W/m2
09:05 50.0 °F /  10 °C 45.0 °F /  7.2 °C 29.95 in /  1014.1 hPa WNW 10.0 mph /  16.1 km/h 18.0 mph /  29 km/h 83 % 0.00 in /  0 mm 204 W/m2
09:10 50.2 °F /  10.1 °C 44.9 °F /  7.2 °C 29.95 in /  1014.1 hPa WNW 11.0 mph /  17.7 km/h 18.0 mph /  29 km/h 82 % 0.00 in /  0 mm 239 W/m2
09:15 50.5 °F /  10.3 °C 44.9 °F /  7.2 °C 29.95 in /  1014.1 hPa WNW 10.0 mph /  16.1 km/h 20.0 mph /  32.2 km/h 81 % 0.00 in /  0 mm 232 W/m2
09:20 50.9 °F /  10.5 °C 44.9 °F /  7.2 °C 29.95 in /  1014.1 hPa WNW 11.0 mph /  17.7 km/h 20.0 mph /  32.2 km/h 80 % 0.00 in /  0 mm 253 W/m2
09:25 51.4 °F /  10.8 °C 45.5 °F /  7.5 °C 29.95 in /  1014.1 hPa WNW 10.0 mph /  16.1 km/h 16.0 mph /  25.7 km/h 80 % 0.00 in /  0 mm 367 W/m2
09:30 51.8 °F /  11 °C 44.8 °F /  7.1 °C 29.94 in /  1013.8 hPa WNW 11.0 mph /  17.7 km/h 23.0 mph /  37 km/h 77 % 0.00 in /  0 mm 260 W/m2
09:35 52.2 °F /  11.2 °C 44.5 °F /  6.9 °C 29.94 in /  1013.8 hPa WNW 12.0 mph /  19.3 km/h 23.0 mph /  37 km/h 75 % 0.00 in /  0 mm 338 W/m2
09:40 52.3 °F /  11.3 °C 44.3 °F /  6.8 °C 29.94 in /  1013.8 hPa WNW 13.0 mph /  20.9 km/h 22.0 mph /  35.4 km/h 74 % 0.00 in /  0 mm 459 W/m2
09:45 52.5 °F /  11.4 °C 44.8 °F /  7.1 °C 29.94 in /  1013.8 hPa WNW 14.0 mph /  22.5 km/h 23.0 mph /  37 km/h 75 % 0.00 in /  0 mm 322 W/m2
09:50 52.5 °F /  11.4 °C 44.8 °F /  7.1 °C 29.94 in /  1013.8 hPa WNW 13.0 mph /  20.9 km/h 23.0 mph /  37 km/h 75 % 0.00 in /  0 mm 348 W/m2
09:56 52.5 °F /  11.4 °C 44.8 °F /  7.1 °C 29.94 in /  1013.8 hPa West 12.0 mph /  19.3 km/h 21.0 mph /  33.8 km/h 75 % 0.00 in /  0 mm 264 W/m2
10:01 52.3 °F /  11.3 °C 44.3 °F /  6.8 °C 29.94 in /  1013.8 hPa West 14.0 mph /  22.5 km/h 24.0 mph /  38.6 km/h 74 % 0.00 in /  0 mm 415 W/m2
10:06 52.5 °F /  11.4 °C 44.5 °F /  6.9 °C 29.93 in /  1013.4 hPa WNW 14.0 mph /  22.5 km/h 24.0 mph /  38.6 km/h 74 % 0.00 in /  0 mm 508 W/m2
10:11 53.1 °F /  11.7 °C 44.6 °F /  7 °C 29.93 in /  1013.4 hPa WNW 12.0 mph /  19.3 km/h 25.0 mph /  40.2 km/h 73 % 0.00 in /  0 mm 480 W/m2
10:16 53.4 °F /  11.9 °C 44.2 °F /  6.8 °C 29.93 in /  1013.4 hPa WNW 14.0 mph /  22.5 km/h 25.0 mph /  40.2 km/h 71 % 0.00 in /  0 mm 596 W/m2
10:21 54.0 °F /  12.2 °C 44.4 °F /  6.9 °C 29.93 in /  1013.4 hPa WNW 15.0 mph /  24.1 km/h 25.0 mph /  40.2 km/h 70 % 0.00 in /  0 mm 455 W/m2
10:26 54.1 °F /  12.3 °C 44.2 °F /  6.8 °C 29.93 in /  1013.4 hPa WNW 14.0 mph /  22.5 km/h 22.0 mph /  35.4 km/h 69 % 0.00 in /  0 mm 504 W/m2
10:31 54.1 °F /  12.3 °C 44.2 °F /  6.8 °C 29.93 in /  1013.4 hPa WNW 13.0 mph /  20.9 km/h 22.0 mph /  35.4 km/h 69 % 0.00 in /  0 mm 645 W/m2
10:36 54.3 °F /  12.4 °C 44.0 °F /  6.7 °C 29.93 in /  1013.4 hPa WNW 13.0 mph /  20.9 km/h 22.0 mph /  35.4 km/h 68 % 0.00 in /  0 mm 471 W/m2
10:41 54.5 °F /  12.5 °C 44.2 °F /  6.8 °C 29.93 in /  1013.4 hPa WNW 13.0 mph /  20.9 km/h 24.0 mph /  38.6 km/h 68 % 0.00 in /  0 mm 397 W/m2
10:46 54.7 °F /  12.6 °C 44.3 °F /  6.8 °C 29.93 in /  1013.4 hPa WNW 14.0 mph /  22.5 km/h 24.0 mph /  38.6 km/h 68 % 0.00 in /  0 mm 438 W/m2
10:51 54.7 °F /  12.6 °C 45.1 °F /  7.3 °C 29.93 in /  1013.4 hPa WNW 14.0 mph /  22.5 km/h 24.0 mph /  38.6 km/h 70 % 0.00 in /  0 mm 269 W/m2
10:56 53.8 °F /  12.1 °C 44.2 °F /  6.8 °C 29.93 in /  1013.4 hPa WNW 14.0 mph /  22.5 km/h 27.0 mph /  43.5 km/h 70 % 0.00 in /  0 mm 376 W/m2
11:01 53.8 °F /  12.1 °C 45.0 °F /  7.2 °C 29.93 in /  1013.4 hPa WNW 13.0 mph /  20.9 km/h 27.0 mph /  43.5 km/h 72 % 0.00 in /  0 mm 496 W/m2
11:06 53.6 °F /  12 °C 44.8 °F /  7.1 °C 29.93 in /  1013.4 hPa WNW 12.0 mph /  19.3 km/h 22.0 mph /  35.4 km/h 72 % 0.00 in /  0 mm 369 W/m2
11:11 53.1 °F /  11.7 °C 44.6 °F /  7 °C 29.93 in /  1013.4 hPa West 13.0 mph /  20.9 km/h 22.0 mph /  35.4 km/h 73 % 0.00 in /  0 mm 283 W/m2
11:16 52.5 °F /  11.4 °C 44.8 °F /  7.1 °C 29.93 in /  1013.4 hPa WNW 12.0 mph /  19.3 km/h 21.0 mph /  33.8 km/h 75 % 0.00 in /  0 mm 234 W/m2
11:21 51.8 °F /  11 °C 44.8 °F /  7.1 °C 29.93 in /  1013.4 hPa WNW 12.0 mph /  19.3 km/h 20.0 mph /  32.2 km/h 77 % 0.00 in /  0 mm 334 W/m2
11:26 51.6 °F /  10.9 °C 44.6 °F /  7 °C 29.93 in /  1013.4 hPa West 10.0 mph /  16.1 km/h 19.0 mph /  30.6 km/h 77 % 0.00 in /  0 mm 292 W/m2
11:31 51.8 °F /  11 °C 44.8 °F /  7.1 °C 29.93 in /  1013.4 hPa WNW 9.0 mph /  14.5 km/h 18.0 mph /  29 km/h 77 % 0.00 in /  0 mm 376 W/m2
11:36 52.0 °F /  11.1 °C 44.6 °F /  7 °C 29.92 in /  1013.1 hPa West 10.0 mph /  16.1 km/h 21.0 mph /  33.8 km/h 76 % 0.00 in /  0 mm 394 W/m2
11:41 52.0 °F /  11.1 °C 43.9 °F /  6.6 °C 29.93 in /  1013.4 hPa West 12.0 mph /  19.3 km/h 21.0 mph /  33.8 km/h 74 % 0.00 in /  0 mm 341 W/m2
11:46 52.2 °F /  11.2 °C 44.1 °F /  6.7 °C 29.92 in /  1013.1 hPa WNW 11.0 mph /  17.7 km/h 21.0 mph /  33.8 km/h 74 % 0.00 in /  0 mm 464 W/m2
11:51 52.5 °F /  11.4 °C 44.5 °F /  6.9 °C 29.92 in /  1013.1 hPa WNW 10.0 mph /  16.1 km/h 15.0 mph /  24.1 km/h 74 % 0.00 in /  0 mm 376 W/m2
11:56 52.9 °F /  11.6 °C 44.8 °F /  7.1 °C 29.92 in /  1013.1 hPa West 10.0 mph /  16.1 km/h 16.0 mph /  25.7 km/h 74 % 0.00 in /  0 mm 417 W/m2
12:01 53.2 °F /  11.8 °C 45.5 °F /  7.5 °C 29.92 in /  1013.1 hPa WNW 8.0 mph /  12.9 km/h 16.0 mph /  25.7 km/h 75 % 0.00 in /  0 mm 369 W/m2
12:06 53.4 °F /  11.9 °C 44.6 °F /  7 °C 29.92 in /  1013.1 hPa West 9.0 mph /  14.5 km/h 20.0 mph /  32.2 km/h 72 % 0.00 in /  0 mm 336 W/m2
12:11 53.6 °F /  12 °C 44.4 °F /  6.9 °C 29.92 in /  1013.1 hPa WNW 10.0 mph /  16.1 km/h 20.0 mph /  32.2 km/h 71 % 0.00 in /  0 mm 294 W/m2
12:16 53.8 °F /  12.1 °C 43.8 °F /  6.6 °C 29.92 in /  1013.1 hPa WNW 9.0 mph /  14.5 km/h 16.0 mph /  25.7 km/h 69 % 0.00 in /  0 mm 329 W/m2
12:21 53.8 °F /  12.1 °C 43.5 °F /  6.4 °C 29.92 in /  1013.1 hPa NW 9.0 mph /  14.5 km/h 18.0 mph /  29 km/h 68 % 0.00 in /  0 mm 364 W/m2
12:26 53.1 °F /  11.7 °C 42.8 °F /  6 °C 29.92 in /  1013.1 hPa NNW 8.0 mph /  12.9 km/h 15.0 mph /  24.1 km/h 68 % 0.00 in /  0 mm 271 W/m2
12:31 52.5 °F /  11.4 °C 42.6 °F /  5.9 °C 29.92 in /  1013.1 hPa North 6.0 mph /  9.7 km/h 12.0 mph /  19.3 km/h 69 % 0.00 in /  0 mm 239 W/m2
12:36 52.2 °F /  11.2 °C 42.7 °F /  5.9 °C 29.92 in /  1013.1 hPa North 7.0 mph /  11.3 km/h 12.0 mph /  19.3 km/h 70 % 0.00 in /  0 mm 288 W/m2
12:47 52.9 °F /  11.6 °C 41.0 °F /  5 °C 29.91 in /  1012.8 hPa NW 9.0 mph /  14.5 km/h 18.0 mph /  29 km/h 64 % 0.00 in /  0 mm 253 W/m2
12:51 53.2 °F /  11.8 °C 40.5 °F /  4.7 °C 29.92 in /  1013.1 hPa NW 10.0 mph /  16.1 km/h 18.0 mph /  29 km/h 62 % 0.00 in /  0 mm 308 W/m2
12:57 53.8 °F /  12.1 °C 41.5 °F /  5.3 °C 29.91 in /  1012.8 hPa NW 9.0 mph /  14.5 km/h 18.0 mph /  29 km/h 63 % 0.00 in /  0 mm 308 W/m2
13:02 54.1 °F /  12.3 °C 41.4 °F /  5.2 °C 29.91 in /  1012.8 hPa NW 9.0 mph /  14.5 km/h 18.0 mph /  29 km/h 62 % 0.00 in /  0 mm 441 W/m2
13:07 54.5 °F /  12.5 °C 41.3 °F /  5.2 °C 29.91 in /  1012.8 hPa NW 7.0 mph /  11.3 km/h 15.0 mph /  24.1 km/h 61 % 0.00 in /  0 mm 241 W/m2
13:12 54.3 °F /  12.4 °C 40.3 °F /  4.6 °C 29.91 in /  1012.8 hPa NW 8.0 mph /  12.9 km/h 15.0 mph /  24.1 km/h 59 % 0.00 in /  0 mm 183 W/m2
13:17 54.0 °F /  12.2 °C 39.9 °F /  4.4 °C 29.90 in /  1012.4 hPa NW 9.0 mph /  14.5 km/h 16.0 mph /  25.7 km/h 59 % 0.00 in /  0 mm 209 W/m2
13:22 53.4 °F /  11.9 °C 39.9 °F /  4.4 °C 29.90 in /  1012.4 hPa NW 9.0 mph /  14.5 km/h 16.0 mph /  25.7 km/h 60 % 0.00 in /  0 mm 199 W/m2
13:27 53.2 °F /  11.8 °C 38.8 °F /  3.8 °C 29.90 in /  1012.4 hPa NW 9.0 mph /  14.5 km/h 18.0 mph /  29 km/h 58 % 0.00 in /  0 mm 179 W/m2
13:32 53.1 °F /  11.7 °C 38.2 °F /  3.4 °C 29.90 in /  1012.4 hPa NW 9.0 mph /  14.5 km/h 18.0 mph /  29 km/h 57 % 0.00 in /  0 mm 292 W/m2
13:37 53.2 °F /  11.8 °C 38.4 °F /  3.6 °C 29.90 in /  1012.4 hPa NW 9.0 mph /  14.5 km/h 15.0 mph /  24.1 km/h 57 % 0.00 in /  0 mm 260 W/m2
13:42 53.4 °F /  11.9 °C 38.6 °F /  3.7 °C 29.90 in /  1012.4 hPa NW 8.0 mph /  12.9 km/h 15.0 mph /  24.1 km/h 57 % 0.00 in /  0 mm 265 W/m2
13:47 53.6 °F /  12 °C 38.7 °F /  3.7 °C 29.90 in /  1012.4 hPa NW 6.0 mph /  9.7 km/h 14.0 mph /  22.5 km/h 57 % 0.00 in /  0 mm 214 W/m2
13:49 53.8 °F /  12.1 °C 38.9 °F /  3.8 °C 29.90 in /  1012.4 hPa NW 6.0 mph /  9.7 km/h 14.0 mph /  22.5 km/h 57 % 0.00 in /  0 mm 244 W/m2
13:54 53.8 °F /  12.1 °C 38.4 °F /  3.6 °C 29.90 in /  1012.4 hPa NW 7.0 mph /  11.3 km/h 15.0 mph /  24.1 km/h 56 % 0.00 in /  0 mm 276 W/m2
13:59 54.0 °F /  12.2 °C 38.6 °F /  3.7 °C 29.89 in /  1012.1 hPa NW 8.0 mph /  12.9 km/h 15.0 mph /  24.1 km/h 56 % 0.00 in /  0 mm 306 W/m2
14:04 54.1 °F /  12.3 °C 37.8 °F /  3.2 °C 29.89 in /  1012.1 hPa NW 9.0 mph /  14.5 km/h 15.0 mph /  24.1 km/h 54 % 0.00 in /  0 mm 301 W/m2
14:09 54.3 °F /  12.4 °C 37.5 °F /  3.1 °C 29.89 in /  1012.1 hPa NW 9.0 mph /  14.5 km/h 18.0 mph /  29 km/h 53 % 0.00 in /  0 mm 343 W/m2
14:14 55.0 °F /  12.8 °C 36.2 °F /  2.3 °C 29.89 in /  1012.1 hPa NW 10.0 mph /  16.1 km/h 21.0 mph /  33.8 km/h 49 % 0.00 in /  0 mm 1016 W/m2
14:19 56.1 °F /  13.4 °C 35.1 °F /  1.7 °C 29.89 in /  1012.1 hPa WNW 13.0 mph /  20.9 km/h 25.0 mph /  40.2 km/h 45 % 0.00 in /  0 mm 1011 W/m2
14:24 56.7 °F /  13.7 °C 33.2 °F /  0.7 °C 29.89 in /  1012.1 hPa NW 14.0 mph /  22.5 km/h 25.0 mph /  40.2 km/h 41 % 0.00 in /  0 mm 1032 W/m2
14:29 57.2 °F /  14 °C 34.9 °F /  1.6 °C 29.89 in /  1012.1 hPa NW 13.0 mph /  20.9 km/h 23.0 mph /  37 km/h 43 % 0.00 in /  0 mm 429 W/m2
14:34 57.2 °F /  14 °C 34.3 °F /  1.3 °C 29.89 in /  1012.1 hPa WNW 12.0 mph /  19.3 km/h 23.0 mph /  37 km/h 42 % 0.00 in /  0 mm 962 W/m2
14:39 57.4 °F /  14.1 °C 34.5 °F /  1.4 °C 29.89 in /  1012.1 hPa WNW 13.0 mph /  20.9 km/h 24.0 mph /  38.6 km/h 42 % 0.00 in /  0 mm 875 W/m2
14:44 57.4 °F /  14.1 °C 34.5 °F /  1.4 °C 29.89 in /  1012.1 hPa WNW 15.0 mph /  24.1 km/h 26.0 mph /  41.8 km/h 42 % 0.00 in /  0 mm 944 W/m2
14:49 56.8 °F /  13.8 °C 33.4 °F /  0.8 °C 29.89 in /  1012.1 hPa WNW 16.0 mph /  25.7 km/h 26.0 mph /  41.8 km/h 41 % 0.00 in /  0 mm 283 W/m2
14:54 55.8 °F /  13.2 °C 33.6 °F /  0.9 °C 29.89 in /  1012.1 hPa WNW 16.0 mph /  25.7 km/h 27.0 mph /  43.5 km/h 43 % 0.00 in /  0 mm 313 W/m2
14:59 55.0 °F /  12.8 °C 34.1 °F /  1.2 °C 29.88 in /  1011.7 hPa WNW 15.0 mph /  24.1 km/h 27.0 mph /  43.5 km/h 45 % 0.00 in /  0 mm 281 W/m2
15:04 55.0 °F /  12.8 °C 34.6 °F /  1.4 °C 29.88 in /  1011.7 hPa WNW 13.0 mph /  20.9 km/h 23.0 mph /  37 km/h 46 % 0.00 in /  0 mm 429 W/m2
15:10 54.9 °F /  12.7 °C 35.0 °F /  1.7 °C 29.88 in /  1011.7 hPa West 14.0 mph /  22.5 km/h 26.0 mph /  41.8 km/h 47 % 0.00 in /  0 mm 380 W/m2
15:15 54.7 °F /  12.6 °C 34.8 °F /  1.6 °C 29.89 in /  1012.1 hPa WNW 15.0 mph /  24.1 km/h 26.0 mph /  41.8 km/h 47 % 0.00 in /  0 mm 230 W/m2
15:20 54.3 °F /  12.4 °C 33.4 °F /  0.8 °C 29.88 in /  1011.7 hPa WNW 13.0 mph /  20.9 km/h 25.0 mph /  40.2 km/h 45 % 0.00 in /  0 mm 830 W/m2
15:25 54.3 °F /  12.4 °C 33.4 °F /  0.8 °C 29.88 in /  1011.7 hPa WNW 14.0 mph /  22.5 km/h 27.0 mph /  43.5 km/h 45 % 0.00 in /  0 mm 826 W/m2
15:30 54.5 °F /  12.5 °C 34.1 °F /  1.2 °C 29.88 in /  1011.7 hPa WNW 13.0 mph /  20.9 km/h 27.0 mph /  43.5 km/h 46 % 0.00 in /  0 mm 863 W/m2
15:35 54.1 °F /  12.3 °C 33.8 °F /  1 °C 29.88 in /  1011.7 hPa WNW 13.0 mph /  20.9 km/h 25.0 mph /  40.2 km/h 46 % 0.00 in /  0 mm 253 W/m2
15:40 54.3 °F /  12.4 °C 34.0 °F /  1.1 °C 29.88 in /  1011.7 hPa WNW 14.0 mph /  22.5 km/h 27.0 mph /  43.5 km/h 46 % 0.00 in /  0 mm 786 W/m2
15:45 54.5 °F /  12.5 °C 35.2 °F /  1.8 °C 29.88 in /  1011.7 hPa WNW 15.0 mph /  24.1 km/h 27.0 mph /  43.5 km/h 48 % 0.00 in /  0 mm 357 W/m2
15:50 54.5 °F /  12.5 °C 36.2 °F /  2.3 °C 29.88 in /  1011.7 hPa WNW 15.0 mph /  24.1 km/h 26.0 mph /  41.8 km/h 50 % 0.00 in /  0 mm 954 W/m2
15:55 55.2 °F /  12.9 °C 35.3 °F /  1.8 °C 29.88 in /  1011.7 hPa WNW 15.0 mph /  24.1 km/h 25.0 mph /  40.2 km/h 47 % 0.00 in /  0 mm 888 W/m2
16:00 54.5 °F /  12.5 °C 34.7 °F /  1.5 °C 29.89 in /  1012.1 hPa WNW 17.0 mph /  27.4 km/h 29.0 mph /  46.7 km/h 47 % 0.00 in /  0 mm 250 W/m2
16:05 52.9 °F /  11.6 °C 33.2 °F /  0.7 °C 29.88 in /  1011.7 hPa WNW 18.0 mph /  29 km/h 29.0 mph /  46.7 km/h 47 % 0.00 in /  0 mm 380 W/m2
16:10 52.9 °F /  11.6 °C 32.1 °F /  0.1 °C 29.88 in /  1011.7 hPa West 16.0 mph /  25.7 km/h 28.0 mph /  45.1 km/h 45 % 0.00 in /  0 mm 385 W/m2
16:15 53.1 °F /  11.7 °C 31.7 °F /  -0.2 °C 29.88 in /  1011.7 hPa WNW 14.0 mph /  22.5 km/h 23.0 mph /  37 km/h 44 % 0.00 in /  0 mm 392 W/m2
16:20 53.2 °F /  11.8 °C 31.9 °F /  -0.1 °C 29.88 in /  1011.7 hPa WNW 14.0 mph /  22.5 km/h 26.0 mph /  41.8 km/h 44 % 0.00 in /  0 mm 227 W/m2
16:25 53.6 °F /  12 °C 31.6 °F /  -0.2 °C 29.88 in /  1011.7 hPa WNW 13.0 mph /  20.9 km/h 26.0 mph /  41.8 km/h 43 % 0.00 in /  0 mm 596 W/m2
16:30 53.4 °F /  11.9 °C 30.9 °F /  -0.6 °C 29.88 in /  1011.7 hPa WNW 16.0 mph /  25.7 km/h 30.0 mph /  48.3 km/h 42 % 0.00 in /  0 mm 589 W/m2
16:35 53.2 °F /  11.8 °C 31.9 °F /  -0.1 °C 29.88 in /  1011.7 hPa WNW 16.0 mph /  25.7 km/h 30.0 mph /  48.3 km/h 44 % 0.00 in /  0 mm 587 W/m2
16:40 53.1 °F /  11.7 °C 30.6 °F /  -0.8 °C 29.88 in /  1011.7 hPa WNW 15.0 mph /  24.1 km/h 28.0 mph /  45.1 km/h 42 % 0.00 in /  0 mm 564 W/m2
16:45 52.5 °F /  11.4 °C 29.5 °F /  -1.4 °C 29.88 in /  1011.7 hPa WNW 17.0 mph /  27.4 km/h 30.0 mph /  48.3 km/h 41 % 0.00 in /  0 mm 533 W/m2
16:50 52.5 °F /  11.4 °C 30.6 °F /  -0.8 °C 29.87 in /  1011.4 hPa WNW 15.0 mph /  24.1 km/h 30.0 mph /  48.3 km/h 43 % 0.00 in /  0 mm 510 W/m2
16:56 52.9 °F /  11.6 °C 31.5 °F /  -0.3 °C 29.87 in /  1011.4 hPa WNW 13.0 mph /  20.9 km/h 26.0 mph /  41.8 km/h 44 % 0.00 in /  0 mm 501 W/m2
17:01 52.5 °F /  11.4 °C 28.2 °F /  -2.1 °C 29.87 in /  1011.4 hPa WNW 16.0 mph /  25.7 km/h 32.0 mph /  51.5 km/h 39 % 0.00 in /  0 mm 483 W/m2
17:06 52.2 °F /  11.2 °C 29.1 °F /  -1.6 °C 29.87 in /  1011.4 hPa WNW 19.0 mph /  30.6 km/h 32.0 mph /  51.5 km/h 41 % 0.00 in /  0 mm 464 W/m2
17:11 52.2 °F /  11.2 °C 29.7 °F /  -1.3 °C 29.87 in /  1011.4 hPa WNW 17.0 mph /  27.4 km/h 30.0 mph /  48.3 km/h 42 % 0.00 in /  0 mm 455 W/m2
17:16 52.2 °F /  11.2 °C 28.5 °F /  -1.9 °C 29.87 in /  1011.4 hPa WNW 16.0 mph /  25.7 km/h 29.0 mph /  46.7 km/h 40 % 0.00 in /  0 mm 445 W/m2
17:21 51.6 °F /  10.9 °C 27.4 °F /  -2.6 °C 29.87 in /  1011.4 hPa WNW 18.0 mph /  29 km/h 29.0 mph /  46.7 km/h 39 % 0.00 in /  0 mm 427 W/m2
17:26 51.4 °F /  10.8 °C 27.9 °F /  -2.3 °C 29.87 in /  1011.4 hPa WNW 18.0 mph /  29 km/h 29.0 mph /  46.7 km/h 40 % 0.00 in /  0 mm 411 W/m2
17:31 51.4 °F /  10.8 °C 27.3 °F /  -2.6 °C 29.87 in /  1011.4 hPa WNW 16.0 mph /  25.7 km/h 27.0 mph /  43.5 km/h 39 % 0.00 in /  0 mm 392 W/m2
17:36 51.4 °F /  10.8 °C 27.9 °F /  -2.3 °C 29.87 in /  1011.4 hPa WNW 16.0 mph /  25.7 km/h 27.0 mph /  43.5 km/h 40 % 0.00 in /  0 mm 376 W/m2
17:41 51.3 °F /  10.7 °C 28.9 °F /  -1.7 °C 29.87 in /  1011.4 hPa WNW 16.0 mph /  25.7 km/h 33.0 mph /  53.1 km/h 42 % 0.00 in /  0 mm 376 W/m2
17:46 50.9 °F /  10.5 °C 28.6 °F /  -1.9 °C 29.87 in /  1011.4 hPa WNW 16.0 mph /  25.7 km/h 33.0 mph /  53.1 km/h 42 % 0.00 in /  0 mm 366 W/m2
17:51 50.4 °F /  10.2 °C 28.7 °F /  -1.8 °C 29.87 in /  1011.4 hPa WNW 17.0 mph /  27.4 km/h 31.0 mph /  49.9 km/h 43 % 0.00 in /  0 mm 345 W/m2
17:56 50.0 °F /  10 °C 29.5 °F /  -1.4 °C 29.87 in /  1011.4 hPa WNW 20.0 mph /  32.2 km/h 34.0 mph /  54.7 km/h 45 % 0.00 in /  0 mm 355 W/m2
18:01 49.8 °F /  9.9 °C 30.9 °F /  -0.6 °C 29.87 in /  1011.4 hPa WNW 19.0 mph /  30.6 km/h 34.0 mph /  54.7 km/h 48 % 0.00 in /  0 mm 325 W/m2
18:06 49.6 °F /  9.8 °C 31.2 °F /  -0.4 °C 29.87 in /  1011.4 hPa WNW 17.0 mph /  27.4 km/h 28.0 mph /  45.1 km/h 49 % 0.00 in /  0 mm 320 W/m2
18:11 49.6 °F /  9.8 °C 31.2 °F /  -0.4 °C 29.86 in /  1011.1 hPa WNW 15.0 mph /  24.1 km/h 27.0 mph /  43.5 km/h 49 % 0.00 in /  0 mm 339 W/m2
18:16 49.6 °F /  9.8 °C 31.2 °F /  -0.4 °C 29.86 in /  1011.1 hPa WNW 14.0 mph /  22.5 km/h 24.0 mph /  38.6 km/h 49 % 0.00 in /  0 mm 279 W/m2
18:21 49.6 °F /  9.8 °C 29.7 °F /  -1.3 °C 29.86 in /  1011.1 hPa WNW 15.0 mph /  24.1 km/h 32.0 mph /  51.5 km/h 46 % 0.00 in /  0 mm 265 W/m2
18:26 49.1 °F /  9.5 °C 29.2 °F /  -1.6 °C 29.86 in /  1011.1 hPa WNW 16.0 mph /  25.7 km/h 32.0 mph /  51.5 km/h 46 % 0.00 in /  0 mm 246 W/m2
18:31 48.9 °F /  9.4 °C 28.5 °F /  -1.9 °C 29.87 in /  1011.4 hPa WNW 16.0 mph /  25.7 km/h 30.0 mph /  48.3 km/h 45 % 0.00 in /  0 mm 223 W/m2
18:36 48.7 °F /  9.3 °C 27.8 °F /  -2.3 °C 29.86 in /  1011.1 hPa WNW 16.0 mph /  25.7 km/h 28.0 mph /  45.1 km/h 44 % 0.00 in /  0 mm 204 W/m2
18:41 48.7 °F /  9.3 °C 28.3 °F /  -2.1 °C 29.87 in /  1011.4 hPa WNW 15.0 mph /  24.1 km/h 28.0 mph /  45.1 km/h 45 % 0.00 in /  0 mm 193 W/m2
18:46 48.4 °F /  9.1 °C 29.1 °F /  -1.6 °C 29.86 in /  1011.1 hPa WNW 13.0 mph /  20.9 km/h 28.0 mph /  45.1 km/h 47 % 0.00 in /  0 mm 116 W/m2
18:51 47.8 °F /  8.8 °C 28.0 °F /  -2.2 °C 29.87 in /  1011.4 hPa WNW 14.0 mph /  22.5 km/h 33.0 mph /  53.1 km/h 46 % 0.00 in /  0 mm 39 W/m2
18:56 46.9 °F /  8.3 °C 26.7 °F /  -2.9 °C 29.87 in /  1011.4 hPa WNW 16.0 mph /  25.7 km/h 33.0 mph /  53.1 km/h 45 % 0.00 in /  0 mm 42 W/m2
19:01 46.4 °F /  8 °C 23.9 °F /  -4.5 °C 29.87 in /  1011.4 hPa WNW 17.0 mph /  27.4 km/h 32.0 mph /  51.5 km/h 41 % 0.00 in /  0 mm 139 W/m2
19:06 46.2 °F /  7.9 °C 24.9 °F /  -3.9 °C 29.87 in /  1011.4 hPa WNW 15.0 mph /  24.1 km/h 29.0 mph /  46.7 km/h 43 % 0.00 in /  0 mm 128 W/m2
19:11 46.2 °F /  7.9 °C 26.0 °F /  -3.3 °C 29.87 in /  1011.4 hPa NW 16.0 mph /  25.7 km/h 29.0 mph /  46.7 km/h 45 % 0.00 in /  0 mm 111 W/m2
19:12 46.2 °F /  7.9 °C 26.0 °F /  -3.3 °C 29.87 in /  1011.4 hPa NW 16.0 mph /  25.7 km/h 29.0 mph /  46.7 km/h 45 % 0.00 in /  0 mm 111 W/m2
19:17 46.0 °F /  7.8 °C 27.4 °F /  -2.6 °C 29.87 in /  1011.4 hPa WNW 16.0 mph /  25.7 km/h 29.0 mph /  46.7 km/h 48 % 0.00 in /  0 mm 107 W/m2
19:22 45.9 °F /  7.7 °C 27.3 °F /  -2.6 °C 29.86 in /  1011.1 hPa WNW 16.0 mph /  25.7 km/h 29.0 mph /  46.7 km/h 48 % 0.00 in /  0 mm 83 W/m2
19:27 45.7 °F /  7.6 °C 27.6 °F /  -2.4 °C 29.86 in /  1011.1 hPa WNW 17.0 mph /  27.4 km/h 29.0 mph /  46.7 km/h 49 % 0.00 in /  0 mm 72 W/m2
19:32 45.3 °F /  7.4 °C 26.8 °F /  -2.9 °C 29.86 in /  1011.1 hPa WNW 16.0 mph /  25.7 km/h 26.0 mph /  41.8 km/h 48 % 0.00 in /  0 mm 65 W/m2
19:37 45.0 °F /  7.2 °C 26.4 °F /  -3.1 °C 29.86 in /  1011.1 hPa WNW 14.0 mph /  22.5 km/h 25.0 mph /  40.2 km/h 48 % 0.00 in /  0 mm 51 W/m2
19:42 44.8 °F /  7.1 °C 26.8 °F /  -2.9 °C 29.86 in /  1011.1 hPa WNW 14.0 mph /  22.5 km/h 25.0 mph /  40.2 km/h 49 % 0.00 in /  0 mm 32 W/m2
19:47 44.4 °F /  6.9 °C 26.4 °F /  -3.1 °C 29.86 in /  1011.1 hPa WNW 12.0 mph /  19.3 km/h 25.0 mph /  40.2 km/h 49 % 0.00 in /  0 mm 28 W/m2
19:52 44.2 °F /  6.8 °C 26.8 °F /  -2.9 °C 29.87 in /  1011.4 hPa WNW 12.0 mph /  19.3 km/h 23.0 mph /  37 km/h 50 % 0.00 in /  0 mm 23 W/m2
19:57 44.1 °F /  6.7 °C 26.6 °F /  -3 °C 29.86 in /  1011.1 hPa WNW 11.0 mph /  17.7 km/h 23.0 mph /  37 km/h 50 % 0.00 in /  0 mm 18 W/m2
20:02 43.7 °F /  6.5 °C 26.3 °F /  -3.2 °C 29.86 in /  1011.1 hPa WNW 10.0 mph /  16.1 km/h 20.0 mph /  32.2 km/h 50 % 0.00 in /  0 mm 12 W/m2
20:07 43.3 °F /  6.3 °C 26.4 °F /  -3.1 °C 29.87 in /  1011.4 hPa WNW 10.0 mph /  16.1 km/h 21.0 mph /  33.8 km/h 51 % 0.00 in /  0 mm 11 W/m2
20:12 43.2 °F /  6.2 °C 26.7 °F /  -2.9 °C 29.87 in /  1011.4 hPa WNW 11.0 mph /  17.7 km/h 22.0 mph /  35.4 km/h 52 % 0.00 in /  0 mm 9 W/m2
20:17 43.0 °F /  6.1 °C 27.0 °F /  -2.8 °C 29.87 in /  1011.4 hPa WNW 10.0 mph /  16.1 km/h 22.0 mph /  35.4 km/h 53 % 0.00 in /  0 mm 7 W/m2
20:22 42.6 °F /  5.9 °C 27.1 °F /  -2.7 °C 29.87 in /  1011.4 hPa WNW 11.0 mph /  17.7 km/h 22.0 mph /  35.4 km/h 54 % 0.00 in /  0 mm 5 W/m2
20:27 42.4 °F /  5.8 °C 27.4 °F /  -2.6 °C 29.87 in /  1011.4 hPa WNW 11.0 mph /  17.7 km/h 22.0 mph /  35.4 km/h 55 % 0.00 in /  0 mm 0 W/m2
20:32 42.3 °F /  5.7 °C 27.7 °F /  -2.4 °C 29.87 in /  1011.4 hPa WNW 9.0 mph /  14.5 km/h 18.0 mph /  29 km/h 56 % 0.00 in /  0 mm 0 W/m2
20:37 42.1 °F /  5.6 °C 27.9 °F /  -2.3 °C 29.87 in /  1011.4 hPa WNW 10.0 mph /  16.1 km/h 19.0 mph /  30.6 km/h 57 % 0.00 in /  0 mm 0 W/m2
20:42 41.9 °F /  5.5 °C 28.2 °F /  -2.1 °C 29.88 in /  1011.7 hPa WNW 10.0 mph /  16.1 km/h 22.0 mph /  35.4 km/h 58 % 0.00 in /  0 mm 0 W/m2
20:47 41.7 °F /  5.4 °C 28.4 °F /  -2 °C 29.88 in /  1011.7 hPa WNW 8.0 mph /  12.9 km/h 22.0 mph /  35.4 km/h 59 % 0.00 in /  0 mm 0 W/m2
20:52 41.5 °F /  5.3 °C 28.7 °F /  -1.8 °C 29.88 in /  1011.7 hPa NW 7.0 mph /  11.3 km/h 19.0 mph /  30.6 km/h 60 % 0.00 in /  0 mm 0 W/m2
20:57 41.5 °F /  5.3 °C 29.1 °F /  -1.6 °C 29.89 in /  1012.1 hPa NW 8.0 mph /  12.9 km/h 19.0 mph /  30.6 km/h 61 % 0.00 in /  0 mm 0 W/m2
21:02 41.4 °F /  5.2 °C 28.9 °F /  -1.7 °C 29.89 in /  1012.1 hPa NNW 7.0 mph /  11.3 km/h 18.0 mph /  29 km/h 61 % 0.00 in /  0 mm 0 W/m2
21:08 41.2 °F /  5.1 °C 29.1 °F /  -1.6 °C 29.89 in /  1012.1 hPa NNW 7.0 mph /  11.3 km/h 18.0 mph /  29 km/h 62 % 0.00 in /  0 mm 0 W/m2
21:13 41.0 °F /  5 °C 29.4 °F /  -1.4 °C 29.89 in /  1012.1 hPa NW 8.0 mph /  12.9 km/h 18.0 mph /  29 km/h 63 % 0.00 in /  0 mm 0 W/m2
21:18 40.6 °F /  4.8 °C 29.4 °F /  -1.4 °C 29.89 in /  1012.1 hPa NW 8.0 mph /  12.9 km/h 16.0 mph /  25.7 km/h 64 % 0.00 in /  0 mm 0 W/m2
21:23 40.5 °F /  4.7 °C 28.8 °F /  -1.8 °C 29.90 in /  1012.4 hPa NW 8.0 mph /  12.9 km/h 19.0 mph /  30.6 km/h 63 % 0.00 in /  0 mm 0 W/m2
21:28 40.3 °F /  4.6 °C 29.1 °F /  -1.6 °C 29.90 in /  1012.4 hPa NW 9.0 mph /  14.5 km/h 19.0 mph /  30.6 km/h 64 % 0.00 in /  0 mm 0 W/m2
21:33 40.3 °F /  4.6 °C 29.4 °F /  -1.4 °C 29.90 in /  1012.4 hPa NW 9.0 mph /  14.5 km/h 19.0 mph /  30.6 km/h 65 % 0.00 in /  0 mm 0 W/m2
21:38 40.1 °F /  4.5 °C 29.6 °F /  -1.3 °C 29.90 in /  1012.4 hPa NW 8.0 mph /  12.9 km/h 16.0 mph /  25.7 km/h 66 % 0.00 in /  0 mm 0 W/m2
21:43 39.9 °F /  4.4 °C 29.5 °F /  -1.4 °C 29.90 in /  1012.4 hPa WNW 9.0 mph /  14.5 km/h 19.0 mph /  30.6 km/h 66 % 0.00 in /  0 mm 0 W/m2
21:48 39.9 °F /  4.4 °C 29.5 °F /  -1.4 °C 29.90 in /  1012.4 hPa WNW 10.0 mph /  16.1 km/h 19.0 mph /  30.6 km/h 66 % 0.00 in /  0 mm 0 W/m2
21:53 39.7 °F /  4.3 °C 30.0 °F /  -1.1 °C 29.91 in /  1012.8 hPa WNW 10.0 mph /  16.1 km/h 21.0 mph /  33.8 km/h 68 % 0.00 in /  0 mm 0 W/m2
21:58 39.6 °F /  4.2 °C 30.6 °F /  -0.8 °C 29.90 in /  1012.4 hPa WNW 10.0 mph /  16.1 km/h 21.0 mph /  33.8 km/h 70 % 0.00 in /  0 mm 0 W/m2
22:03 39.2 °F /  4 °C 30.6 °F /  -0.8 °C 29.90 in /  1012.4 hPa WNW 9.0 mph /  14.5 km/h 20.0 mph /  32.2 km/h 71 % 0.00 in /  0 mm 0 W/m2
22:08 39.0 °F /  3.9 °C 30.4 °F /  -0.9 °C 29.90 in /  1012.4 hPa WNW 9.0 mph /  14.5 km/h 18.0 mph /  29 km/h 71 % 0.00 in /  0 mm 0 W/m2
22:13 38.7 °F /  3.7 °C 30.4 °F /  -0.9 °C 29.90 in /  1012.4 hPa WNW 9.0 mph /  14.5 km/h 18.0 mph /  29 km/h 72 % 0.00 in /  0 mm 0 W/m2
22:18 38.5 °F /  3.6 °C 30.9 °F /  -0.6 °C 29.90 in /  1012.4 hPa WNW 9.0 mph /  14.5 km/h 16.0 mph /  25.7 km/h 74 % 0.00 in /  0 mm 0 W/m2
22:23 38.1 °F /  3.4 °C 31.2 °F /  -0.4 °C 29.90 in /  1012.4 hPa WNW 9.0 mph /  14.5 km/h 16.0 mph /  25.7 km/h 76 % 0.00 in /  0 mm 0 W/m2
22:28 37.8 °F /  3.2 °C 31.2 °F /  -0.4 °C 29.90 in /  1012.4 hPa WNW 8.0 mph /  12.9 km/h 15.0 mph /  24.1 km/h 77 % 0.00 in /  0 mm 0 W/m2
22:33 37.6 °F /  3.1 °C 31.3 °F /  -0.4 °C 29.90 in /  1012.4 hPa WNW 6.0 mph /  9.7 km/h 12.0 mph /  19.3 km/h 78 % 0.00 in /  0 mm 0 W/m2
22:38 37.4 °F /  3 °C 31.2 °F /  -0.4 °C 29.90 in /  1012.4 hPa WNW 5.0 mph /  8 km/h 13.0 mph /  20.9 km/h 78 % 0.00 in /  0 mm 0 W/m2
22:43 37.2 °F /  2.9 °C 31.0 °F /  -0.6 °C 29.90 in /  1012.4 hPa WNW 5.0 mph /  8 km/h 13.0 mph /  20.9 km/h 78 % 0.00 in /  0 mm 0 W/m2
22:48 37.0 °F /  2.8 °C 31.1 °F /  -0.5 °C 29.90 in /  1012.4 hPa WNW 6.0 mph /  9.7 km/h 11.0 mph /  17.7 km/h 79 % 0.00 in /  0 mm 0 W/m2
22:53 36.9 °F /  2.7 °C 31.0 °F /  -0.6 °C 29.90 in /  1012.4 hPa WNW 6.0 mph /  9.7 km/h 10.0 mph /  16.1 km/h 79 % 0.00 in /  0 mm 0 W/m2
22:58 36.7 °F /  2.6 °C 30.8 °F /  -0.7 °C 29.90 in /  1012.4 hPa WNW 5.0 mph /  8 km/h 10.0 mph /  16.1 km/h 79 % 0.00 in /  0 mm 0 W/m2
23:03 36.7 °F /  2.6 °C 30.8 °F /  -0.7 °C 29.90 in /  1012.4 hPa WNW 2.0 mph /  3.2 km/h 8.0 mph /  12.9 km/h 79 % 0.00 in /  0 mm 0 W/m2
23:08 36.5 °F /  2.5 °C 30.6 °F /  -0.8 °C 29.90 in /  1012.4 hPa WNW 1.0 mph /  1.6 km/h 6.0 mph /  9.7 km/h 79 % 0.00 in /  0 mm 0 W/m2
23:13 36.3 °F /  2.4 °C 30.4 °F /  -0.9 °C 29.90 in /  1012.4 hPa Calm   2.0 mph /  3.2 km/h 79 % 0.00 in /  0 mm 0 W/m2
23:18 36.1 °F /  2.3 °C 30.3 °F /  -0.9 °C 29.90 in /  1012.4 hPa Calm   2.0 mph /  3.2 km/h 79 % 0.00 in /  0 mm 0 W/m2
23:23 35.8 °F /  2.1 °C 29.9 °F /  -1.2 °C 29.89 in /  1012.1 hPa WNW 2.0 mph /  3.2 km/h 9.0 mph /  14.5 km/h 79 % 0.00 in /  0 mm 0 W/m2
23:28 35.8 °F /  2.1 °C 29.9 °F /  -1.2 °C 29.90 in /  1012.4 hPa NW 4.0 mph /  6.4 km/h 9.0 mph /  14.5 km/h 79 % 0.00 in /  0 mm 0 W/m2
23:33 35.8 °F /  2.1 °C 29.9 °F /  -1.2 °C 29.90 in /  1012.4 hPa NW 4.0 mph /  6.4 km/h 9.0 mph /  14.5 km/h 79 % 0.00 in /  0 mm 0 W/m2
23:38 35.8 °F /  2.1 °C 29.6 °F /  -1.3 °C 29.90 in /  1012.4 hPa WNW 5.0 mph /  8 km/h 11.0 mph /  17.7 km/h 78 % 0.00 in /  0 mm 0 W/m2
23:43 35.8 °F /  2.1 °C 29.6 °F /  -1.3 °C 29.90 in /  1012.4 hPa WNW 4.0 mph /  6.4 km/h 11.0 mph /  17.7 km/h 78 % 0.00 in /  0 mm 0 W/m2
23:44 35.8 °F /  2.1 °C 29.6 °F /  -1.3 °C 29.90 in /  1012.4 hPa WNW 4.0 mph /  6.4 km/h 11.0 mph /  17.7 km/h 78 % 0.00 in /  0 mm 0 W/m2
23:49 35.8 °F /  2.1 °C 29.3 °F /  -1.5 °C 29.90 in /  1012.4 hPa WNW 3.0 mph /  4.8 km/h 8.0 mph /  12.9 km/h 77 % 0.00 in /  0 mm 0 W/m2
23:54 35.8 °F /  2.1 °C 29.3 °F /  -1.5 °C 29.90 in /  1012.4 hPa WNW 4.0 mph /  6.4 km/h 11.0 mph /  17.7 km/h 77 % 0.00 in /  0 mm 0 W/m2
23:59 35.8 °F /  2.1 °C 29.3 °F /  -1.5 °C 29.90 in /  1012.4 hPa WNW 6.0 mph /  9.7 km/h 13.0 mph /  20.9 km/h 77 % 0.00 in /  0 mm 0 W/m2
Delerius-Weather
Compliments of Weather Underground - 2.25 mb

Data updates at regular intervals.